Wetterdaten: Woche 01.02.10 - 07.02.10 (KW5)
Datum Zeit Temp. A. Feuchte A. Luftdruck Regen Wind Richtung Taupunkt Windchill Windben
01.02.2010 00:00 -2,4 C 74 % 1008,0 hPa 0,0 l/m 7,8 km/h NW -6,4 C -4,0 C 21,7 km/h
01.02.2010 01:00 -2,4 C 78 % 1008,2 hPa 0,0 l/m 9,4 km/h NW -5,7 C -5,5 C 21,7 km/h
01.02.2010 02:00 -2,3 C 80 % 1008,5 hPa 0,0 l/m 8,6 km/h NW -5,3 C -4,7 C 22,1 km/h
01.02.2010 03:00 -2,4 C 83 % 1008,9 hPa 0,0 l/m 8,5 km/h NW -4,9 C -4,7 C 22,1 km/h
01.02.2010 04:00 -2,4 C 81 % 1009,1 hPa 0,0 l/m 8,4 km/h W-NW -5,1 C -4,6 C 22,1 km/h
01.02.2010 05:00 -2,2 C 81 % 1009,7 hPa 0,0 l/m 9,1 km/h W -5,0 C -5,0 C 24,1 km/h
01.02.2010 06:00 -1,8 C 72 % 1010,2 hPa 0,0 l/m 10,7 km/h W-NW -6,1 C -6,1 C 25,3 km/h
01.02.2010 07:00 -1,7 C 66 % 1010,9 hPa 0,0 l/m 8,4 km/h W -7,1 C -3,8 C 22,5 km/h
01.02.2010 08:00 -1,7 C 71 % 1011,3 hPa 0,0 l/m 8,3 km/h NW -6,2 C -3,7 C 21,7 km/h
01.02.2010 09:00 -0,6 C 67 % 1011,4 hPa 0,0 l/m 10,9 km/h W -6,1 C -4,8 C 24,1 km/h
01.02.2010 10:00 -0,1 C 65 % 1011,6 hPa 0,0 l/m 12,6 km/h W-NW -5,9 C -5,5 C 29,4 km/h
01.02.2010 11:00 0,3 C 63 % 1011,6 hPa 0,0 l/m 10,0 km/h W-SW -5,8 C -3,1 C 28,5 km/h
01.02.2010 12:00 0,5 C 61 % 1011,4 hPa 0,0 l/m 12,5 km/h NW -6,1 C -4,8 C 30,2 km/h
01.02.2010 13:00 0,6 C 60 % 1011,3 hPa 0,0 l/m 14,0 km/h W-SW -6,3 C -5,6 C 30,2 km/h
01.02.2010 14:00 1,0 C 58 % 1011,3 hPa 0,0 l/m 11,9 km/h W-SW -6,4 C -3,8 C 28,6 km/h
01.02.2010 15:00 0,8 C 56 % 1011,8 hPa 0,0 l/m 11,1 km/h W -7,1 C -3,3 C 26,1 km/h
01.02.2010 16:00 0,3 C 54 % 1012,3 hPa 0,0 l/m 10,6 km/h W -7,9 C -3,5 C 25,7 km/h
01.02.2010 17:00 -0,6 C 56 % 1013,0 hPa 0,0 l/m 7,6 km/h W -8,2 C -1,7 C 21,7 km/h
01.02.2010 18:00 -0,9 C 58 % 1013,3 hPa 0,0 l/m 6,0 km/h W-SW -8,2 C -1,1 C 17,3 km/h
01.02.2010 19:00 -1,3 C 58 % 1013,5 hPa 0,0 l/m 2,6 km/h W-SW -8,6 C -1,3 C 12,5 km/h
01.02.2010 20:00 -1,5 C 58 % 1013,6 hPa 0,0 l/m 3,8 km/h W -8,6 C -1,5 C 15,3 km/h
01.02.2010 21:00 -1,4 C 58 % 1013,4 hPa 0,0 l/m 6,2 km/h W-SW -8,5 C -1,7 C 19,7 km/h
01.02.2010 22:00 -1,4 C 59 % 1013,8 hPa 0,0 l/m 4,8 km/h W -8,3 C -1,4 C 16,9 km/h
01.02.2010 23:00 -1,5 C 65 % 1014,2 hPa 0,0 l/m 8,2 km/h SW -7,2 C -3,5 C 22,9 km/h
02.02.2010 00:00 -1,1 C 70 % 1014,5 hPa 0,0 l/m 9,1 km/h W-SW -5,9 C -3,8 C 24,5 km/h
02.02.2010 01:00 -0,9 C 71 % 1014,6 hPa 0,0 l/m 6,0 km/h NW -5,5 C -1,2 C 21,3 km/h
02.02.2010 02:00 -1,0 C 73 % 1014,7 hPa 0,0 l/m 9,3 km/h W -5,2 C -3,9 C 25,7 km/h
02.02.2010 03:00 -1,0 C 75 % 1014,8 hPa 0,0 l/m 6,4 km/h W -5,0 C -1,8 C 20,5 km/h
02.02.2010 04:00 -1,0 C 70 % 1015,0 hPa 0,0 l/m 3,4 km/h W-SW -5,7 C -1,0 C 14,1 km/h
02.02.2010 05:00 -1,4 C 71 % 1015,2 hPa 0,0 l/m 1,8 km/h SW -5,9 C -1,4 C 8,8 km/h
02.02.2010 06:00 -1,0 C 73 % 1015,3 hPa 0,0 l/m 3,1 km/h W -5,1 C -1,0 C 14,1 km/h
02.02.2010 07:00 -0,3 C 72 % 1016,1 hPa 0,0 l/m 4,2 km/h W-SW -4,6 C -0,3 C 14,1 km/h
02.02.2010 08:00 0,1 C 71 % 1016,6 hPa 0,0 l/m 5,8 km/h SW -4,6 C -0,5 C 21,7 km/h
02.02.2010 09:00 0,6 C 70 % 1016,8 hPa 0,0 l/m 6,9 km/h W -4,2 C -0,2 C 21,7 km/h
02.02.2010 10:00 1,2 C 68 % 1017,2 hPa 0,0 l/m 6,8 km/h W -4,0 C 0,3 C 22,1 km/h
02.02.2010 11:00 1,7 C 64 % 1017,4 hPa 0,0 l/m 8,8 km/h W-NW -4,5 C -0,6 C 24,1 km/h
02.02.2010 12:00 1,8 C 65 % 1017,5 hPa 0,0 l/m 12,1 km/h W-NW -4,1 C -2,9 C 26,1 km/h
02.02.2010 13:00 1,9 C 60 % 1017,0 hPa 0,0 l/m 15,3 km/h W -5,0 C -4,9 C 34,2 km/h
02.02.2010 14:00 1,8 C 62 % 1016,8 hPa 0,0 l/m 13,3 km/h W-SW -4,7 C -3,8 C 31,0 km/h
02.02.2010 15:00 1,6 C 62 % 1016,7 hPa 0,0 l/m 12,1 km/h W-NW -4,9 C -3,0 C 29,4 km/h
02.02.2010 16:00 1,3 C 62 % 1017,4 hPa 0,0 l/m 7,5 km/h W -5,2 C -0,1 C 23,7 km/h
02.02.2010 17:00 0,8 C 58 % 1017,6 hPa 0,0 l/m 3,3 km/h S -6,6 C 0,8 C 16,1 km/h
02.02.2010 18:00 -0,5 C 61 % 1017,2 hPa 0,0 l/m 1,0 km/h S -7,1 C -0,5 C 4,8 km/h
02.02.2010 19:00 -2,2 C 65 % 1016,8 hPa 0,0 l/m 0,3 km/h N -7,8 C -2,2 C 2,8 km/h
02.02.2010 20:00 -2,5 C 66 % 1016,4 hPa 0,0 l/m 0,4 km/h S -8,0 C -2,5 C 4,0 km/h
02.02.2010 21:00 -1,5 C 62 % 1015,6 hPa 0,0 l/m 2,2 km/h S-SO -7,9 C -1,5 C 7,6 km/h
02.02.2010 22:00 -1,9 C 62 % 1015,0 hPa 0,0 l/m 3,4 km/h S -8,2 C -1,9 C 11,3 km/h
02.02.2010 23:00 -2,2 C 62 % 1014,1 hPa 0,0 l/m 2,7 km/h S-SO -8,4 C -2,2 C 9,3 km/h
03.02.2010 00:00 -2,1 C 63 % 1013,0 hPa 0,0 l/m 1,9 km/h S-SO -8,2 C -2,1 C 6,0 km/h
03.02.2010 01:00 -1,2 C 60 % 1011,9 hPa 0,0 l/m 2,2 km/h SO -8,0 C -1,2 C 7,2 km/h
03.02.2010 02:00 -0,7 C 59 % 1010,9 hPa 0,0 l/m 1,0 km/h S -7,8 C -0,7 C 6,9 km/h
03.02.2010 03:00 0,4 C 55 % 1010,0 hPa 0,0 l/m 1,6 km/h S-SO -7,5 C 0,4 C 6,0 km/h
03.02.2010 04:00 0,5 C 58 % 1009,1 hPa 0,0 l/m 1,7 km/h O-SO -6,8 C 0,5 C 6,4 km/h
03.02.2010 05:00 0,1 C 62 % 1008,6 hPa 0,0 l/m 0,3 km/h N -6,4 C 0,1 C 4,8 km/h
03.02.2010 06:00 -0,3 C 64 % 1008,1 hPa 0,0 l/m 0,4 km/h N -6,3 C -0,3 C 5,2 km/h
03.02.2010 07:00 -0,2 C 63 % 1008,1 hPa 0,0 l/m 0,2 km/h N -6,4 C -0,2 C 3,2 km/h
03.02.2010 08:00 0,3 C 64 % 1008,0 hPa 0,0 l/m 1,3 km/h S -5,7 C 0,3 C 8,9 km/h
03.02.2010 09:00 0,9 C 64 % 1007,8 hPa 0,0 l/m 1,9 km/h S-SO -5,1 C 0,9 C 6,0 km/h
03.02.2010 10:00 2,4 C 70 % 1007,8 hPa 0,0 l/m 4,0 km/h W -2,6 C 1,8 C 15,7 km/h
03.02.2010 11:00 6,3 C 71 % 1007,9 hPa 0,0 l/m 10,4 km/h W 1,4 C 3,4 C 29,0 km/h
03.02.2010 12:00 6,3 C 71 % 1008,1 hPa 0,0 l/m 13,9 km/h W-SW 1,4 C 1,3 C 33,0 km/h
03.02.2010 13:00 6,1 C 72 % 1008,8 hPa 0,0 l/m 13,6 km/h W 1,5 C 1,2 C 31,0 km/h
03.02.2010 14:00 5,7 C 75 % 1009,4 hPa 0,3 l/m 12,2 km/h W 1,5 C 1,4 C 31,8 km/h
03.02.2010 15:00 4,6 C 76 % 1011,1 hPa 1,0 l/m 10,8 km/h NW 0,8 C 1,3 C 25,4 km/h
03.02.2010 16:00 2,2 C 85 % 1012,8 hPa 1,0 l/m 4,1 km/h N-NW -0,0 C 2,2 C 9,7 km/h
03.02.2010 17:00 1,9 C 87 % 1013,9 hPa 0,3 l/m 0,8 km/h N -0,0 C 1,9 C 4,4 km/h
03.02.2010 18:00 1,8 C 88 % 1014,8 hPa 0,0 l/m 0,3 km/h N 0,1 C 1,8 C 3,2 km/h
03.02.2010 19:00 1,5 C 88 % 1015,7 hPa 0,0 l/m 0,0 km/h N -0,2 C 1,5 C 0,4 km/h
03.02.2010 20:00 1,5 C 89 % 1016,0 hPa 0,0 l/m 0,8 km/h W-SW -0,1 C 1,5 C 4,4 km/h
03.02.2010 21:00 2,1 C 89 % 1016,9 hPa 0,0 l/m 1,5 km/h SW 0,4 C 2,1 C 7,2 km/h
03.02.2010 22:00 1,9 C 88 % 1017,4 hPa 0,0 l/m 0,2 km/h N 0,1 C 1,9 C 3,2 km/h
03.02.2010 23:00 1,3 C 88 % 1018,1 hPa 0,0 l/m 0,0 km/h N -0,4 C 1,3 C 0,8 km/h
04.02.2010 00:00 1,3 C 89 % 1018,5 hPa 0,0 l/m 0,1 km/h N -0,4 C 1,3 C 2,4 km/h
04.02.2010 01:00 1,3 C 89 % 1019,1 hPa 0,0 l/m 0,1 km/h N -0,3 C 1,3 C 2,0 km/h
04.02.2010 02:00 1,3 C 89 % 1019,6 hPa 0,0 l/m 0,0 km/h N -0,3 C 1,3 C 0,8 km/h
04.02.2010 03:00 1,1 C 90 % 1020,2 hPa 0,3 l/m 0,0 km/h N -0,4 C 1,1 C 1,2 km/h
04.02.2010 04:00 1,0 C 90 % 1020,7 hPa 0,0 l/m 0,1 km/h N -0,5 C 1,0 C 2,8 km/h
04.02.2010 05:00 0,9 C 90 % 1021,2 hPa 0,0 l/m 0,0 km/h N -0,6 C 0,9 C 0,8 km/h
04.02.2010 06:00 0,9 C 90 % 1021,5 hPa 0,3 l/m 0,0 km/h N -0,6 C 0,9 C 1,2 km/h
04.02.2010 07:00 0,7 C 91 % 1021,8 hPa 0,3 l/m 0,0 km/h N -0,7 C 0,7 C 1,2 km/h
04.02.2010 08:00 -0,0 C 91 % 1022,1 hPa 0,0 l/m 1,6 km/h O-SO -1,4 C -0,0 C 4,8 km/h
04.02.2010 09:00 -0,6 C 91 % 1022,4 hPa 0,3 l/m 1,6 km/h O-SO -1,9 C -0,6 C 6,4 km/h
04.02.2010 10:00 -0,7 C 91 % 1022,7 hPa 0,0 l/m 2,4 km/h O -2,0 C -0,7 C 7,2 km/h
04.02.2010 11:00 -0,1 C 92 % 1022,5 hPa 0,0 l/m 0,6 km/h O -1,3 C -0,1 C 2,7 km/h
04.02.2010 12:00 -0,1 C 92 % 1022,2 hPa 0,0 l/m 2,4 km/h O -1,3 C -0,1 C 7,6 km/h
04.02.2010 13:00 -0,1 C 91 % 1021,8 hPa 0,0 l/m 3,2 km/h O -1,4 C -0,2 C 9,3 km/h
04.02.2010 14:00 -1,3 C 90 % 1021,3 hPa 0,0 l/m 4,3 km/h O -2,7 C -1,3 C 8,0 km/h
04.02.2010 15:00 -1,0 C 91 % 1020,9 hPa 0,0 l/m 2,7 km/h O-SO -2,4 C -1,0 C 7,2 km/h
04.02.2010 16:00 -1,1 C 90 % 1021,1 hPa 0,0 l/m 3,5 km/h O-SO -2,6 C -1,1 C 7,6 km/h
04.02.2010 17:00 -2,1 C 88 % 1021,2 hPa 0,0 l/m 2,9 km/h O -3,8 C -2,1 C 7,6 km/h
04.02.2010 18:00 -2,0 C 87 % 1021,1 hPa 0,0 l/m 1,0 km/h O-SO -3,9 C -2,0 C 5,2 km/h
04.02.2010 19:00 -1,8 C 86 % 1020,8 hPa 0,0 l/m 0,3 km/h N -3,9 C -1,8 C 2,8 km/h
04.02.2010 20:00 -1,8 C 85 % 1020,5 hPa 0,0 l/m 0,1 km/h N -4,0 C -1,8 C 1,6 km/h
04.02.2010 21:00 -1,4 C 88 % 1020,2 hPa 0,0 l/m 0,3 km/h N -3,2 C -1,4 C 1,6 km/h
04.02.2010 22:00 -0,5 C 86 % 1019,6 hPa 0,0 l/m 1,2 km/h O-SO -2,6 C -0,5 C 6,8 km/h
04.02.2010 23:00 -0,1 C 83 % 1019,4 hPa 0,0 l/m 0,8 km/h N -2,6 C -0,1 C 5,6 km/h
05.02.2010 00:00 0,1 C 83 % 1018,9 hPa 0,0 l/m 1,5 km/h O -2,4 C 0,1 C 6,8 km/h
05.02.2010 01:00 0,3 C 83 % 1018,7 hPa 0,0 l/m 3,1 km/h O-SO -2,3 C 0,3 C 9,7 km/h
05.02.2010 02:00 0,2 C 85 % 1018,3 hPa 0,0 l/m 2,6 km/h O-SO -2,0 C 0,2 C 9,3 km/h
05.02.2010 03:00 0,0 C 85 % 1017,6 hPa 0,0 l/m 3,9 km/h O-SO -2,2 C 0,0 C 10,5 km/h
05.02.2010 04:00 0,0 C 85 % 1017,3 hPa 0,0 l/m 5,4 km/h SO -2,3 C 0,0 C 12,9 km/h
05.02.2010 05:00 -0,1 C 85 % 1016,7 hPa 0,0 l/m 6,3 km/h O -2,3 C -0,1 C 16,1 km/h
05.02.2010 06:00 -0,1 C 85 % 1016,3 hPa 0,0 l/m 5,6 km/h O-SO -2,3 C -0,1 C 15,3 km/h
05.02.2010 07:00 -0,1 C 85 % 1016,1 hPa 0,0 l/m 6,6 km/h SO -2,3 C -0,4 C 16,5 km/h
05.02.2010 08:00 0,1 C 86 % 1015,9 hPa 0,0 l/m 5,6 km/h O -2,1 C 0,1 C 14,5 km/h
05.02.2010 09:00 0,2 C 86 % 1015,1 hPa 0,0 l/m 6,0 km/h O -1,8 C -0,0 C 17,3 km/h
05.02.2010 10:00 0,9 C 86 % 1014,8 hPa 0,0 l/m 4,7 km/h O -1,2 C 0,9 C 17,3 km/h
05.02.2010 11:00 1,8 C 86 % 1014,1 hPa 0,0 l/m 3,5 km/h O-SO -0,4 C 1,8 C 12,1 km/h
05.02.2010 12:00 3,0 C 84 % 1013,3 hPa 0,0 l/m 2,8 km/h O 0,6 C 3,0 C 11,7 km/h
05.02.2010 13:00 4,0 C 81 % 1012,7 hPa 0,0 l/m 3,4 km/h O-SO 1,1 C 4,0 C 9,7 km/h
05.02.2010 14:00 4,3 C 81 % 1012,4 hPa 0,0 l/m 3,1 km/h S-SO 1,4 C 4,3 C 8,4 km/h
05.02.2010 15:00 4,8 C 81 % 1012,0 hPa 0,0 l/m 3,9 km/h O 1,8 C 4,8 C 10,9 km/h
05.02.2010 16:00 3,8 C 83 % 1012,1 hPa 0,0 l/m 4,4 km/h O 1,1 C 3,8 C 10,9 km/h
05.02.2010 17:00 3,1 C 85 % 1012,3 hPa 0,0 l/m 2,4 km/h SO 0,8 C 3,1 C 8,9 km/h
05.02.2010 18:00 2,7 C 85 % 1012,5 hPa 0,0 l/m 2,7 km/h S-SO 0,4 C 2,7 C 8,4 km/h
05.02.2010 19:00 1,7 C 86 % 1012,9 hPa 0,0 l/m 2,2 km/h O -0,5 C 1,7 C 8,8 km/h
05.02.2010 20:00 1,3 C 86 % 1013,0 hPa 0,0 l/m 1,1 km/h S-SO -0,8 C 1,3 C 6,8 km/h
05.02.2010 21:00 1,2 C 86 % 1013,2 hPa 0,0 l/m 1,0 km/h O-SO -0,9 C 1,2 C 6,4 km/h
05.02.2010 22:00 1,1 C 85 % 1013,3 hPa 0,0 l/m 1,1 km/h O -1,1 C 1,1 C 6,8 km/h
05.02.2010 23:00 0,8 C 85 % 1013,5 hPa 0,0 l/m 2,1 km/h O -1,6 C 0,8 C 7,2 km/h
06.02.2010 00:00 0,5 C 85 % 1013,5 hPa 0,0 l/m 2,8 km/h O -1,8 C 0,5 C 7,6 km/h
06.02.2010 01:00 0,3 C 85 % 1013,4 hPa 0,0 l/m 2,1 km/h O-SO -1,9 C 0,3 C 6,8 km/h
06.02.2010 02:00 0,2 C 86 % 1013,4 hPa 0,0 l/m 1,0 km/h O -1,9 C 0,2 C 4,8 km/h
06.02.2010 03:00 0,1 C 85 % 1013,4 hPa 0,0 l/m 1,7 km/h O -2,1 C 0,1 C 5,6 km/h
06.02.2010 04:00 -0,2 C 84 % 1013,6 hPa 0,0 l/m 2,8 km/h O-SO -2,6 C -0,2 C 8,5 km/h
06.02.2010 05:00 -0,4 C 82 % 1013,6 hPa 0,0 l/m 2,4 km/h O-SO -3,1 C -0,4 C 7,2 km/h
06.02.2010 06:00 -0,4 C 80 % 1013,5 hPa 0,0 l/m 1,2 km/h SO -3,4 C -0,4 C 6,0 km/h
06.02.2010 07:00 -0,5 C 80 % 1013,6 hPa 0,0 l/m 0,0 km/h N -3,5 C -0,5 C 1,6 km/h
06.02.2010 08:00 -0,5 C 80 % 1013,6 hPa 0,0 l/m 0,0 km/h N -3,6 C -0,5 C 1,2 km/h
06.02.2010 09:00 -0,2 C 79 % 1013,4 hPa 0,0 l/m 0,0 km/h N -3,5 C -0,2 C 0,4 km/h
06.02.2010 10:00 0,1 C 76 % 1013,2 hPa 0,0 l/m 0,0 km/h N -3,6 C 0,1 C 0,8 km/h
06.02.2010 11:00 0,5 C 72 % 1013,1 hPa 0,0 l/m 0,1 km/h N -4,0 C 0,5 C 2,8 km/h
06.02.2010 12:00 1,4 C 68 % 1012,8 hPa 0,0 l/m 0,2 km/h N -3,8 C 1,4 C 1,6 km/h
06.02.2010 13:00 1,6 C 65 % 1012,6 hPa 0,0 l/m 0,1 km/h N -4,2 C 1,6 C 1,2 km/h
06.02.2010 14:00 1,8 C 64 % 1012,5 hPa 0,0 l/m 0,2 km/h N -4,3 C 1,8 C 2,8 km/h
06.02.2010 15:00 2,1 C 63 % 1012,3 hPa 0,0 l/m 1,4 km/h NW -4,2 C 2,1 C 5,2 km/h
06.02.2010 16:00 2,0 C 65 % 1012,4 hPa 0,0 l/m 3,5 km/h NW -4,0 C 2,0 C 8,1 km/h
06.02.2010 17:00 1,7 C 67 % 1012,3 hPa 0,0 l/m 3,1 km/h W-NW -3,7 C 1,7 C 8,0 km/h
06.02.2010 18:00 1,5 C 68 % 1012,4 hPa 0,0 l/m 4,0 km/h N-NW -3,7 C 1,5 C 10,1 km/h
06.02.2010 19:00 1,7 C 67 % 1012,6 hPa 0,0 l/m 8,2 km/h NW -3,7 C -0,1 C 16,9 km/h
06.02.2010 20:00 1,8 C 68 % 1012,8 hPa 0,0 l/m 8,9 km/h N-NW -3,6 C -0,6 C 20,5 km/h
06.02.2010 21:00 1,4 C 71 % 1013,3 hPa 0,0 l/m 7,0 km/h NW -3,4 C 0,5 C 15,3 km/h
06.02.2010 22:00 0,6 C 74 % 1013,8 hPa 0,0 l/m 5,9 km/h NW -3,5 C 0,4 C 13,3 km/h
06.02.2010 23:00 0,4 C 77 % 1014,4 hPa 0,0 l/m 6,0 km/h N-NW -3,2 C -0,1 C 12,1 km/h
07.02.2010 00:00 -0,4 C 77 % 1014,6 hPa 0,0 l/m 4,3 km/h NW -3,9 C -0,4 C 8,4 km/h
07.02.2010 01:00 -1,4 C 75 % 1015,2 hPa 0,0 l/m 3,6 km/h NW -5,2 C -1,4 C 8,0 km/h
07.02.2010 02:00 -1,9 C 75 % 1015,4 hPa 0,0 l/m 6,6 km/h NO -5,7 C -2,8 C 16,5 km/h
07.02.2010 03:00 -2,8 C 75 % 1015,6 hPa 0,0 l/m 5,8 km/h NO -6,5 C -2,9 C 14,1 km/h
07.02.2010 04:00 -3,5 C 75 % 1016,2 hPa 0,0 l/m 5,3 km/h N-NO -7,3 C -3,5 C 14,1 km/h
07.02.2010 05:00 -3,9 C 76 % 1016,4 hPa 0,0 l/m 6,2 km/h NO -7,5 C -4,1 C 15,3 km/h
07.02.2010 06:00 -4,1 C 76 % 1016,7 hPa 0,0 l/m 5,8 km/h N-NO -7,7 C -4,1 C 13,3 km/h
07.02.2010 07:00 -4,1 C 76 % 1017,0 hPa 0,0 l/m 6,0 km/h N -7,7 C -4,5 C 16,1 km/h
07.02.2010 08:00 -3,9 C 76 % 1017,5 hPa 0,0 l/m 6,3 km/h N-NW -7,6 C -4,3 C 14,9 km/h
07.02.2010 09:00 -3,8 C 77 % 1018,2 hPa 0,0 l/m 4,6 km/h N-NW -7,3 C -3,8 C 12,5 km/h
07.02.2010 10:00 -3,8 C 81 % 1018,5 hPa 0,0 l/m 3,4 km/h NW -6,5 C -3,8 C 10,1 km/h
07.02.2010 11:00 -3,3 C 81 % 1018,2 hPa 0,0 l/m 5,7 km/h NW -6,0 C -3,3 C 12,9 km/h
07.02.2010 12:00 -3,7 C 81 % 1018,1 hPa 0,0 l/m 6,5 km/h NO -6,5 C -3,8 C 16,1 km/h
07.02.2010 13:00 -4,1 C 78 % 1018,3 hPa 0,0 l/m 7,0 km/h N-NW -7,4 C -4,7 C 18,1 km/h
07.02.2010 14:00 -3,4 C 73 % 1018,4 hPa 0,0 l/m 7,6 km/h N-NW -7,6 C -4,8 C 18,5 km/h
07.02.2010 15:00 -3,5 C 69 % 1018,5 hPa 0,0 l/m 7,4 km/h N -8,3 C -4,6 C 17,3 km/h
07.02.2010 16:00 -3,8 C 70 % 1018,7 hPa 0,0 l/m 7,4 km/h NW -8,5 C -4,9 C 17,3 km/h
07.02.2010 17:00 -4,4 C 71 % 1019,1 hPa 0,0 l/m 5,4 km/h NW -8,8 C -4,4 C 12,5 km/h
07.02.2010 18:00 -4,9 C 73 % 1019,5 hPa 0,0 l/m 3,9 km/h NW -8,9 C -4,9 C 8,8 km/h
07.02.2010 19:00 -5,2 C 73 % 1019,7 hPa 0,0 l/m 4,0 km/h NW -9,3 C -5,2 C 9,7 km/h
07.02.2010 20:00 -4,9 C 73 % 1019,6 hPa 0,0 l/m 4,5 km/h NW -9,0 C -4,9 C 9,7 km/h
07.02.2010 21:00 -4,8 C 73 % 1019,5 hPa 0,0 l/m 3,8 km/h NW -8,8 C -4,8 C 10,5 km/h
07.02.2010 22:00 -4,8 C 75 % 1019,2 hPa 0,0 l/m 3,3 km/h N -8,5 C -4,8 C 9,3 km/h
07.02.2010 23:00 -4,9 C 75 % 1018,9 hPa 0,0 l/m 5,0 km/h NW -8,7 C -4,9 C 14,9 km/h
Min-Datum _ 07.02.10 01.02.10 03.02.10 - 02.02.10 - 07.02.10 07.02.10 02.02.10
_ Min-Zeit 19:15 16:15 09:00 - 19:15 - 19:30 15:00 19:30
Minimum _ -5,2 C 53 % 1007,7 hPa - 0,0 km/h - -9,3 C -8,1 C 0,0 km/h
Max-Datum _ 03.02.10 04.02.10 04.02.10 03.02.10 03.02.10 - 05.02.10 05.02.10 01.02.10
_ Max-Zeit 11:15 11:30 10:00 15:30 12:00 - 15:30 15:30 11:45
Maximum _ 6,4 C 92 % 1022,7 hPa 1,0 l/m 16,3 km/h
W-SW
- 2,1 C 5,3 C 38,6 km/h
W-SW
Durchschnitt _ -0,2 C 75 % 1015,1 hPa #3,6 l/m 4,5 km/h NW -4,1 C -1,0 C 12,5 km/h